Tiempo atmosférico en la estación meteorológica de Bustillo del Páramo, León (850 m.)

Fecha
DESCASC
Temp. máxima en grados centígrados (hora)
DESCASC
Temp. mínima en grados centígrados (hora)
DESCASC
Temp. media en grados centígrados
DESCASC
Racha de viento máxima en m/sg (hora)
DESCASC
Velocidad máxima media en intervalos de 10 minutos(hora)
DESCASC
Precipitaciones diarias en mm
DESCASC
Precipitaciones de 00:00 a 06:00 en mm
DESCASC
Precipitaciones de 06:00 a 12:00 en mm
DESCASC
Precipitaciones de 12:00 a 18:00 en mm
DESCASC
Precipitaciones de 18:00 a 24:00 en mm
DESCASC
23-11-2017 14 (12:50) 7.5 (04:00) 10.8 13.06 (16:40) 10 (16:40) 0 0 0 0 0
22-11-2017 14 (15:30) -3.4 (08:40) 5.3 12.5 (23:40) 9.17 (23:50) 0 0 0 0 0
21-11-2017 13.7 (16:20) -4 (08:20) 4.8 3.33 (05:30) 2.78 (20:10) 0 0 0 0 0
20-11-2017 15.9 (16:10) -1.8 (04:50) 7 4.44 (14:10) 2.78 (14:10) 0 0 0 0 0
19-11-2017 16.1 (15:40) -1.5 (-00:0) 7.3 4.44 (03:50) 3.33 (03:50) 0 0 0 0 0
18-11-2017 16.2 (16:00) -1.3 (-00:0) 7.5 4.17 (02:30) 3.06 (02:50) 0 0 0 0 0
17-11-2017 17.2 (15:30) 0.8 (00:00) 9 3.89 (09:10) 2.78 (21:30) 0 0 0 0 0
16-11-2017 18.3 (15:50) 0.1 (00:00) 9.2 3.61 (04:00) 2.78 (04:00) 0 0 0 0 0
15-11-2017 16.5 (16:00) -1.6 (-00:0) 7.4 4.72 (07:40) 3.06 (07:00) 0 0 0 0 0
14-11-2017 11.8 (16:30) -3.2 (-00:0) 4.3 3.06 (19:40) 2.5 (21:00) 0 0 0 0 0
13-11-2017 11.8 (15:00) -0.3 (00:00) 5.8 10.28 (11:30) 7.5 (11:30) 0 0 0 0 0
12-11-2017 13.9 (16:40) 0 (00:00) 6.9 10.28 (15:10) 7.22 (15:10) 0 0 0 0 0
11-11-2017 15.3 (16:30) -0.4 (00:00) 7.5 4.72 (10:00) 3.61 (10:00) 0 0 0 0 0
10-11-2017 17.1 (15:20) 2.1 (00:00) 9.6 10.56 (12:10) 7.22 (12:10) 0 0 0 0 0
09-11-2017 12 (14:20) -2.1 (-00:0) 5 10.56 (14:40) 6.94 (15:50) 0 0 0 0 0
08-11-2017 11.1 (14:40) -0.2 (00:00) 5.5 11.67 (15:40) 7.5 (15:00) 0 0 0 0 0
07-11-2017 14.9 (14:50) -1.7 (-00:0) 6.6 11.11 (17:10) 8.61 (17:10) 0 0 0 0 0
06-11-2017 13.6 (16:50) 2.1 (00:00) 7.9 7.22 (04:00) 5.28 (04:00) 0 0 0 0 0
05-11-2017 11.1 (13:20) 3.1 (00:00) 7.1 9.44 (12:40) 7.22 (13:50) 0.4 0 0 0.4 0
04-11-2017 14 (14:50) 7.6 (00:00) 10.8 8.33 (17:40) 5.83 (15:10) 4.4 3.2 0 1.2 0
03-11-2017 15 (14:50) 8.1 (00:00) 11.6 8.33 (13:50) 5.83 (13:50) 17.8 13 3.2 1.6 0
02-11-2017 13.7 (14:10) 9.8 (22:00) 11.8 9.72 (21:10) 6.11 (17:00) 6.6 0 0.2 0.6 5.8
01-11-2017 17 (15:00) -0.1 (00:00) 8.4 3.89 (15:10) 2.5 (15:10) 0 0 0 0 0
31-10-2017 14.3 (16:10) 0.1 (00:00) 7.2 3.33 (21:30) 2.5 (21:40) 0 0 0 0 0
30-10-2017 19.5 (15:40) 2.2 (00:00) 10.9 6.67 (17:20) 4.17 (17:20) 0 0 0 0 0
29-10-2017 21.7 (15:30) 1.6 (00:00) 11.7 5 (19:10) 3.33 (16:30) 0 0 0 0 0
28-10-2017 20.4 (17:10) 2.6 (00:00) 11.5 4.44 (16:30) 2.78 (16:30) 0 0 0 0 0
27-10-2017 26.6 (15:20) 5.9 (00:00) 16.3 11.67 (16:50) 8.06 (17:00) 0 0 0 0 0
26-10-2017 23.3 (17:10) 3.6 (00:00) 13.4 5.56 (14:50) 3.06 (13:20) 0 0 0 0 0
25-10-2017 24.1 (16:50) 4.4 (00:00) 14.3 5.56 (15:40) 3.06 (02:50) 0 0 0 0 0

Gráficas

Temp. máximas Temp. mínimas Temp. medias Precipitaciones Rachas de viento máximas Velocidades máximas media en intervalos de 10 minutos

Datos horarios

Fecha y hora oficial Temperatura (ºC) Velocidad del viento (km/h) Dirección del viento Racha (km/h) Dirección de racha Precipitación (mm) Presión (hPa) Tendencia (hPa) Humedad (%)
2017-11-23 23:00:00 10.6 13 Sur 18 Sur 0 -- -- 77
2017-11-23 22:00:00 10.6 4 Sur 14 Sudeste 0 -- -- 81
2017-11-23 21:00:00 10.6 8 Este 15 Sur 0 -- -- 84
2017-11-23 20:00:00 11 14 Sur 28 Sur 0 -- -- 82
2017-11-23 19:00:00 11.2 18 Sur 36 Sur 0 -- -- 82
2017-11-23 18:00:00 12.3 24 Sur 40 Sur 0 -- -- 79
2017-11-23 17:00:00 12.8 31 Sur 47 Sur 0 -- -- 80
2017-11-23 16:00:00 12.9 28 Sur 41 Sur 0 -- -- 80
2017-11-23 15:00:00 12.5 19 Sur 38 Sur 0 -- -- 83
2017-11-23 14:00:00 13.7 33 Sur 43 Sur 0 -- -- 76
2017-11-23 13:00:00 13.7 24 Sur 35 Sur 0 -- -- 73
2017-11-23 12:00:00 12.8 23 Sur 41 Sudoeste 0 -- -- 73
2017-11-23 11:00:00 12 18 Sudoeste 26 Sur 0 -- -- 77
2017-11-23 10:00:00 9.7 10 Sur 17 Sur 0 -- -- 86
2017-11-23 09:00:00 7.8 12 Sur 18 Sur 0 -- -- 88
2017-11-23 08:00:00 7.7 10 Sur 28 Sur 0 -- -- 83
2017-11-23 07:00:00 8.8 19 Sur 46 Sur 0 -- -- 76
2017-11-23 06:00:00 9.1 30 Sur 47 Sur 0 -- -- 72
2017-11-23 05:00:00 9 14 Sur 23 Sur 0 -- -- 69
2017-11-23 04:00:00 7.5 7 Este 17 Sudeste 0 -- -- 69
2017-11-23 03:00:00 8.4 8 Sur 33 Sur 0 -- -- 63
2017-11-23 02:00:00 10 20 Sur 36 Sur 0 -- -- 57
2017-11-23 01:00:00 8 11 Este 40 Sudoeste 0 -- -- 63
2017-11-23 00:00:00 9.3 29 Sudoeste 45 Sudoeste 0 -- -- 59
2017-11-22 23:00:00 8.3 5 Sur 14 Sur 0 -- -- 60
2017-11-22 22:00:00 10.2 6 Sudeste 16 Noroeste 0 -- -- 52
2017-11-22 21:00:00 10.3 6 Nordeste 12 Norte 0 -- -- 51
2017-11-22 20:00:00 10.7 5 Sudoeste 27 Sudoeste 0 -- -- 51
2017-11-22 19:00:00 10.7 4 Sur 17 Sur 0 -- -- 53
2017-11-22 18:00:00 10.6 11 Sudeste 13 Sur 0 -- -- 52
2017-11-22 17:00:00 12.5 10 Sur 27 Sur 0 -- -- 48
2017-11-22 16:00:00 13.9 23 Sudoeste 33 Sudoeste 0 -- -- 44
2017-11-22 15:00:00 12.1 19 Sur 30 Sur 0 -- -- 47
2017-11-22 14:00:00 10.4 13 Sur 20 Sudeste 0 -- -- 51
2017-11-22 13:00:00 9.1 4 Sudeste 13 Este 0 -- -- 53
2017-11-22 12:00:00 7.3 5 Este 11 Este 0 -- -- 59
2017-11-22 11:00:00 5.5 6 Este 14 Este 0 -- -- 66
2017-11-22 10:00:00 1.9 0 Calma 4 Noroeste 0 -- -- 78
2017-11-22 09:00:00 -2.9 4 Noroeste 7 Noroeste 0 -- -- 91
2017-11-22 08:00:00 -2.6 0 Calma 5 Noroeste 0 -- -- 89
2017-11-22 07:00:00 -2.6 0 Calma 8 Norte 0 -- -- 87
2017-11-22 06:00:00 -2.6 6 Norte 10 Norte 0 -- -- 89
2017-11-22 05:00:00 -2.7 5 Norte 8 Norte 0 -- -- 88
2017-11-22 04:00:00 -1.9 5 Oeste 6 Noroeste 0 -- -- 86
2017-11-22 03:00:00 -1.6 5 Noroeste 11 Noroeste 0 -- -- 86
2017-11-22 02:00:00 -0.1 6 Nordeste 9 Nordeste 0 -- -- 85
2017-11-22 01:00:00 -1.4 6 Norte 9 Norte 0 -- -- 86
2017-11-22 00:00:00 -0.5 5 Nordeste 8 Norte 0 -- -- 82
2017-11-21 23:00:00 -1 7 Norte 9 Norte 0 -- -- 83
2017-11-21 22:00:00 -0.5 6 Norte 10 Norte 0 -- -- 80
2017-11-21 21:00:00 2 7 Norte 11 Este 0 -- -- 71
2017-11-21 20:00:00 4.9 9 Este 11 Este 0 -- -- 63
2017-11-21 19:00:00 6.4 5 Nordeste 6 Nordeste 0 -- -- 57
2017-11-21 18:00:00 10 4 Este 7 Sur 0 -- -- 48
2017-11-21 17:00:00 13.3 5 Sur 11 Sur 0 -- -- 39
2017-11-21 16:00:00 13.4 6 Sudoeste 12 Sur 0 -- -- 37
2017-11-21 15:00:00 13.2 5 Sudoeste 10 Sudoeste 0 -- -- 35
2017-11-21 14:00:00 12.1 3 Sudeste 8 Sudeste 0 -- -- 40
2017-11-21 13:00:00 10.8 4 Sur 9 Sur 0 -- -- 45
2017-11-21 12:00:00 9.6 0 Calma 4 Este 0 -- -- 49
2017-11-21 11:00:00 6.9 0 Calma 8 Norte 0 -- -- 55
2017-11-21 10:00:00 2.2 4 Norte 8 Norte 0 -- -- 79
2017-11-21 09:00:00 -2.5 5 Noroeste 8 Norte 0 -- -- 90
2017-11-21 08:00:00 -3.6 6 Norte 9 Noroeste 0 -- -- 87
2017-11-21 07:00:00 -3.2 5 Norte 12 Norte 0 -- -- 86
2017-11-21 06:00:00 -2.1 8 Norte 12 Noroeste 0 -- -- 85
2017-11-21 05:00:00 -2.6 6 Noroeste 9 Norte 0 -- -- 85
2017-11-21 04:00:00 -2.4 6 Norte 8 Noroeste 0 -- -- 86
2017-11-21 03:00:00 -1.5 6 Noroeste 9 Noroeste 0 -- -- 85
2017-11-21 02:00:00 -1.1 6 Noroeste 10 Norte 0 -- -- 83
2017-11-21 01:00:00 -1.1 7 Norte 9 Norte 0 -- -- 82
2017-11-21 00:00:00 -0.2 8 Norte 11 Norte 0 -- -- 79
2017-11-20 23:00:00 -0.1 9 Norte 10 Norte 0 -- -- 80
2017-11-20 22:00:00 0.7 5 Norte 7 Norte 0 -- -- 76
2017-11-20 21:00:00 2.3 3 Norte 5 Norte 0 -- -- 68
2017-11-20 20:00:00 6.1 2 Sudeste 5 Sudeste 0 -- -- 55
2017-11-20 19:00:00 8.1 5 Sudeste 5 Sudeste 0 -- -- 49
2017-11-20 18:00:00 11.7 4 Sur 6 Sudeste 0 -- -- 39
2017-11-20 17:00:00 14.6 5 Sur 10 Sur 0 -- -- 33
2017-11-20 16:00:00 15.8 8 Sur 13 Sur 0 -- -- 27
2017-11-20 15:00:00 15.1 8 Sur 16 Sur 0 -- -- 28
2017-11-20 14:00:00 14.9 9 Sur 14 Sur 0 -- -- 29
2017-11-20 13:00:00 14 7 Sur 14 Sur 0 -- -- 30
2017-11-20 12:00:00 12.6 0 Calma 4 Este 0 -- -- 30
2017-11-20 11:00:00 9.1 3 Norte 10 Noroeste 0 -- -- 45
2017-11-20 10:00:00 3.8 6 Noroeste 12 Noroeste 0 -- -- 70
2017-11-20 09:00:00 -0.4 9 Noroeste 13 Noroeste 0 -- -- 81
2017-11-20 08:00:00 -1.4 8 Noroeste 13 Norte 0 -- -- 83
2017-11-20 07:00:00 -1.2 9 Norte 13 Norte 0 -- -- 83
2017-11-20 06:00:00 -1.5 8 Noroeste 11 Norte 0 -- -- 85
2017-11-20 05:00:00 -1.8 7 Norte 9 Norte 0 -- -- 85
2017-11-20 04:00:00 -1.6 7 Norte 9 Norte 0 -- -- 83
2017-11-20 03:00:00 -1.6 8 Noroeste 9 Noroeste 0 -- -- 82
2017-11-20 02:00:00 -0.9 7 Norte 10 Norte 0 -- -- 80
2017-11-20 01:00:00 -0.6 8 Norte 11 Norte 0 -- -- 78
2017-11-20 00:00:00 0.2 6 Norte 12 Norte 0 -- -- 75
2017-11-19 23:00:00 1.1 10 Norte 13 Noroeste 0 -- -- 73
2017-11-19 22:00:00 1.4 7 Norte 10 Noroeste 0 -- -- 71
2017-11-19 21:00:00 2.4 8 Noroeste 11 Noroeste 0 -- -- 67
2017-11-19 20:00:00 6.5 2 Norte 8 Sur 0 -- -- 43
2017-11-19 19:00:00 9.9 5 Sur -- -- 0 -- -- 33
2017-11-19 18:00:00 13.4 4 Sur 5 Sur 0 -- -- 31
2017-11-19 17:00:00 15.7 4 Sur 9 Sur 0 -- -- 26
2017-11-19 16:00:00 16.1 6 Sudoeste 12 Sudoeste 0 -- -- 25
2017-11-19 15:00:00 15.5 3 Sudoeste 13 Sudoeste 0 -- -- 32
2017-11-19 14:00:00 14.9 4 Sudoeste 10 Sur 0 -- -- 34
2017-11-19 13:00:00 13.3 3 Sudoeste 8 Sur 0 -- -- 40
2017-11-19 12:00:00 10.8 2 Sur 6 Sudoeste 0 -- -- 49
2017-11-19 11:00:00 7.2 3 Sudoeste 4 Sur 0 -- -- 65
2017-11-19 10:00:00 3.6 2 Sur 4 Sudeste 0 -- -- 77
2017-11-19 09:00:00 -0.6 2 Norte 9 Norte 0 -- -- 86
2017-11-19 08:00:00 -1.2 7 Noroeste 10 Noroeste 0 -- -- 87
2017-11-19 07:00:00 -1 5 Norte 12 Noroeste 0 -- -- 85
2017-11-19 06:00:00 -0.2 7 Noroeste 14 Noroeste 0 -- -- 86
2017-11-19 05:00:00 0 8 Noroeste 15 Norte 0 -- -- 86
2017-11-19 04:00:00 0.5 10 Noroeste 16 Noroeste 0 -- -- 85
2017-11-19 03:00:00 0.7 5 Noroeste 14 Norte -- -- -- 86
2017-11-19 02:00:00 0.5 10 Norte 13 Noroeste 0 -- -- 89
2017-11-19 01:00:00 -0.1 8 Norte 10 Norte 0 -- -- 87
2017-11-19 00:00:00 0.7 8 Norte 9 Norte 0 -- -- 83
2017-11-18 23:00:00 4 4 Norte 5 Norte 0 -- -- 72
2017-11-18 22:00:00 3.6 0 Calma 8 Norte 0 -- -- 75
2017-11-18 21:00:00 5.1 7 Norte 9 Norte 0 -- -- 68
2017-11-18 20:00:00 6.9 0 Calma 4 Sur 0 -- -- 62
2017-11-18 19:00:00 10.6 4 Sur 6 Sur 0 -- -- 50
2017-11-18 18:00:00 13.8 4 Sur 5 Sur 0 -- -- 42
2017-11-18 17:00:00 16.1 3 Sudoeste 6 Sudoeste 0 -- -- 36
2017-11-18 16:00:00 16.2 3 Sur 10 Sudoeste 0 -- -- 36
2017-11-18 15:00:00 15.8 4 Sudoeste 9 Sudoeste 0 -- -- 37
2017-11-18 14:00:00 14.8 2 Sur 9 Sudoeste 0 -- -- 40
2017-11-18 13:00:00 13.4 3 Sudoeste 12 Oeste 0 -- -- 42
2017-11-18 12:00:00 11.9 4 Oeste 9 Oeste 0 -- -- 46
2017-11-18 11:00:00 9.7 2 Noroeste 6 Norte 0 -- -- 57
2017-11-18 10:00:00 5.2 5 Norte 8 Norte 0 -- -- 81
2017-11-18 09:00:00 -0.4 3 Norte 6 Norte 0 -- -- 91
2017-11-18 08:00:00 -1.1 6 Norte 9 Noroeste 0 -- -- 89
2017-11-18 07:00:00 -0.7 7 Norte 9 Noroeste 0 -- -- 88
2017-11-18 06:00:00 -0.1 6 Norte 9 Norte 0 -- -- 88
2017-11-18 05:00:00 1.3 0 Calma 11 Norte 0 -- -- 86
2017-11-18 04:00:00 1.6 8 Norte 13 Norte 0 -- -- 85
2017-11-18 03:00:00 2.4 10 Norte 15 Norte 0 -- -- 82
2017-11-18 02:00:00 2.6 9 Noroeste 14 Noroeste 0 -- -- 82
2017-11-18 01:00:00 2.9 9 Noroeste 12 Noroeste 0 -- -- 82
2017-11-18 00:00:00 3 8 Noroeste 10 Norte 0 -- -- 82
2017-11-17 23:00:00 3.6 8 Noroeste 9 Nordeste 0 -- -- 78
2017-11-17 22:00:00 5.7 7 Nordeste 12 Este 0 -- -- 70
2017-11-17 21:00:00 4.9 9 Norte 10 Norte 0 -- -- 74
2017-11-17 20:00:00 8.7 0 Calma 3 Norte 0 -- -- 54
2017-11-17 19:00:00 10.3 0 Calma 0 Calma 0 -- -- 51
2017-11-17 18:00:00 14.2 0 Calma -- -- 0 -- -- 38
2017-11-17 17:00:00 16.5 0 Calma 4 Sur 0 -- -- 34
2017-11-17 16:00:00 16.8 0 Calma 8 Sudeste 0 -- -- 33
2017-11-17 15:00:00 17 2 Oeste 6 Sur 0 -- -- 33
2017-11-17 14:00:00 16.4 2 Este 9 Sur 0 -- -- 33
2017-11-17 13:00:00 16 3 Sur 7 Sur 0 -- -- 37
2017-11-17 12:00:00 14.6 0 Calma 4 Noroeste 0 -- -- 39
2017-11-17 11:00:00 11.3 2 Norte 9 Noroeste 0 -- -- 52
2017-11-17 10:00:00 6.3 6 Norte 14 Noroeste 0 -- -- 75
2017-11-17 09:00:00 2.2 9 Noroeste 13 Noroeste 0 -- -- 85
2017-11-17 08:00:00 0.8 6 Noroeste 12 Noroeste 0 -- -- 88
2017-11-17 07:00:00 1.2 7 Noroeste 10 Norte 0 -- -- 88
2017-11-17 06:00:00 1.1 6 Norte 10 Noroeste 0 -- -- 87
2017-11-17 05:00:00 1.5 7 Norte 11 Noroeste 0 -- -- 86
2017-11-17 04:00:00 1.4 8 Norte 10 Noroeste 0 -- -- 87
2017-11-17 03:00:00 1.4 8 Norte 10 Noroeste -- -- -- 86
2017-11-17 02:00:00 1.1 7 Norte 10 Norte 0 -- -- 86
2017-11-17 01:00:00 1.6 9 Norte 10 Norte 0 -- -- 83
2017-11-17 00:00:00 2.5 8 Norte 11 Norte 0 -- -- 82
2017-11-16 23:00:00 3 8 Norte 10 Norte 0 -- -- 80
2017-11-16 22:00:00 3.7 9 Norte 9 Norte 0 -- -- 78
2017-11-16 21:00:00 5.4 5 Norte 6 Norte 0 -- -- 70
2017-11-16 20:00:00 7.6 0 Calma 4 Norte 0 -- -- 60
2017-11-16 19:00:00 12 3 Sur 7 Sudeste 0 -- -- 45
2017-11-16 18:00:00 15.2 6 Sudeste 7 Sudeste 0 -- -- 37
2017-11-16 17:00:00 17.8 4 Sudeste 9 Sudeste 0 -- -- 32
2017-11-16 16:00:00 18 5 Sudeste 10 Sur 0 -- -- 29
2017-11-16 15:00:00 17.7 2 Sudeste 7 Sudeste 0 -- -- 31
2017-11-16 14:00:00 17 2 Sudeste 6 Sudeste 0 -- -- 34
2017-11-16 13:00:00 15.1 4 Sur 8 Sur 0 -- -- 40
2017-11-16 12:00:00 13.2 4 Sur 7 Sur 0 -- -- 50
2017-11-16 11:00:00 10.9 0 Calma 4 Oeste 0 -- -- 59
2017-11-16 10:00:00 6.3 4 Norte 8 Noroeste 0 -- -- 78
2017-11-16 09:00:00 1.6 6 Norte 11 Norte 0 -- -- 89
2017-11-16 08:00:00 0.5 8 Noroeste 11 Norte 0 -- -- 88
2017-11-16 07:00:00 0.3 6 Noroeste 9 Noroeste 0 -- -- 89
2017-11-16 06:00:00 0.2 6 Noroeste 8 Norte 0 -- -- 90
2017-11-16 05:00:00 0.2 7 Norte 13 Norte 0 -- -- 89
2017-11-16 04:00:00 0.7 10 Norte 13 Noroeste 0 -- -- 88
2017-11-16 03:00:00 1.3 7 Norte 11 Norte 0 -- -- 87
2017-11-16 02:00:00 1.2 8 Norte 11 Noroeste 0 -- -- 87
2017-11-16 01:00:00 0.9 6 Norte 10 Norte 0 -- -- 86
2017-11-16 00:00:00 0.8 8 Norte 12 Norte 0 -- -- 85
2017-11-15 23:00:00 2 7 Norte 9 Noroeste 0 -- -- 78
2017-11-15 22:00:00 4.4 4 Nordeste 8 Nordeste 0 -- -- 69
2017-11-15 21:00:00 5.3 5 Nordeste 7 Nordeste 0 -- -- 63
2017-11-15 20:00:00 6.6 0 Calma 5 Sur 0 -- -- 58
2017-11-15 19:00:00 10.2 4 Sur 6 Sur 0 -- -- 46
2017-11-15 18:00:00 13.4 5 Sur 9 Sur 0 -- -- 38
2017-11-15 17:00:00 16.1 5 Sur 9 Sudoeste 0 -- -- 32
2017-11-15 16:00:00 16.5 4 Sur 8 Sur 0 -- -- 32
2017-11-15 15:00:00 15.6 3 Sur 10 Sudoeste 0 -- -- 36
2017-11-15 14:00:00 14.5 4 Sudoeste 10 Sur 0 -- -- 42
2017-11-15 13:00:00 12.8 5 Sur 10 Sur 0 -- -- 48
2017-11-15 12:00:00 10.5 3 Sudeste 6 Sur 0 -- -- 61
2017-11-15 11:00:00 8.1 2 Sudeste 5 Sudeste 0 -- -- 69
2017-11-15 10:00:00 5.1 0 Calma 11 Noroeste 0 -- -- 85
2017-11-15 09:00:00 1.9 8 Noroeste 14 Noroeste 0 -- -- 91
2017-11-15 08:00:00 0.2 10 Norte 17 Noroeste 0 -- -- 92
2017-11-15 07:00:00 -0.2 11 Noroeste 15 Noroeste 0 -- -- 93
2017-11-15 06:00:00 -0.7 8 Norte 13 Noroeste 0 -- -- 92
2017-11-15 05:00:00 -1 7 Norte 10 Norte 0 -- -- 92
2017-11-15 04:00:00 -1 8 Norte 10 Norte 0 -- -- 93
2017-11-15 03:00:00 -1.4 6 Norte 8 Noroeste 0 -- -- 91
2017-11-15 02:00:00 -0.8 5 Norte 8 Norte 0 -- -- 90
2017-11-15 01:00:00 -0.6 5 Norte 9 Norte 0 -- -- 90
2017-11-15 00:00:00 0.2 5 Noroeste 8 Noroeste 0 -- -- 86
2017-11-14 23:00:00 0.9 5 Norte 8 Norte 0 -- -- 86
2017-11-14 22:00:00 1.4 6 Noroeste 10 Noroeste 0 -- -- 84
2017-11-14 21:00:00 2.7 9 Noroeste 11 Noroeste 0 -- -- 80
2017-11-14 20:00:00 4.8 4 Norte 11 Noroeste 0 -- -- 71
2017-11-14 19:00:00 6.2 5 Noroeste 6 Noroeste 0 -- -- 63
2017-11-14 18:00:00 10.7 2 Noroeste 5 Sudoeste 0 -- -- 46
2017-11-14 17:00:00 11.8 3 Oeste 6 Sur 0 -- -- 44
2017-11-14 16:00:00 11.3 3 Noroeste 10 Sudoeste 0 -- -- 46
2017-11-14 15:00:00 11 4 Sur 8 Sur 0 -- -- 48
2017-11-14 14:00:00 9.5 3 Este 6 Este 0 -- -- 51
2017-11-14 13:00:00 8.2 4 Sur 8 Sudeste 0 -- -- 58
2017-11-14 12:00:00 7 3 Sur 8 Sudeste 0 -- -- 67
2017-11-14 11:00:00 5.4 2 Este 6 Norte 0 -- -- 73
2017-11-14 10:00:00 2.7 5 Norte 9 Norte 0 -- -- 85
2017-11-14 09:00:00 -1.6 5 Norte 8 Norte 0 -- -- 94
2017-11-14 08:00:00 -3.1 5 Norte 8 Norte 0 -- -- 92
2017-11-14 07:00:00 -3.1 6 Norte 9 Norte 0 -- -- 93
2017-11-14 06:00:00 -2.9 5 Norte 8 Noroeste 0 -- -- 91
2017-11-14 05:00:00 -2.8 4 Noroeste 8 Noroeste 0 -- -- 92
2017-11-14 04:00:00 -2.9 4 Norte 7 Norte 0 -- -- 91
2017-11-14 03:00:00 -2.4 6 Norte 8 Noroeste 0 -- -- 89
2017-11-14 02:00:00 -1.8 4 Norte 7 Noroeste 0 -- -- 89
2017-11-14 01:00:00 -0.8 2 Noroeste 6 Noroeste 0 -- -- 87
2017-11-14 00:00:00 -0.3 0 Calma 2 Este 0 -- -- 87
2017-11-13 23:00:00 0.7 0 Calma 4 Sudoeste 0 -- -- 84
2017-11-13 22:00:00 0.7 4 Sur 8 Nordeste 0 -- -- 84
2017-11-13 21:00:00 2.2 5 Nordeste 11 Nordeste 0 -- -- 76
2017-11-13 20:00:00 3.3 7 Nordeste 18 Norte 0 -- -- 72
2017-11-13 19:00:00 4.6 8 Norte 15 Norte 0 -- -- 69
2017-11-13 18:00:00 7.4 14 Norte 25 Norte 0 -- -- 58
2017-11-13 17:00:00 10.3 15 Norte 30 Norte 0 -- -- 47
2017-11-13 16:00:00 11.3 20 Norte 31 Noroeste 0 -- -- 45
2017-11-13 15:00:00 11.8 18 Noroeste 32 Norte 0 -- -- 44
2017-11-13 14:00:00 11.5 21 Norte 33 Norte 0 -- -- 43
2017-11-13 13:00:00 11.2 23 Norte 33 Noroeste 0 -- -- 45
2017-11-13 12:00:00 10.3 24 Norte 37 Norte 0 -- -- 52
2017-11-13 11:00:00 9.3 21 Norte 31 Norte 0 -- -- 61
2017-11-13 10:00:00 7.3 9 Oeste 17 Noroeste 0 -- -- 70
2017-11-13 09:00:00 4.6 7 Norte 20 Norte 0 -- -- 81
2017-11-13 08:00:00 2.7 6 Norte 9 Norte 0 -- -- 84
2017-11-13 07:00:00 3.4 8 Oeste 21 Oeste 0 -- -- 85
2017-11-13 06:00:00 4 4 Oeste 11 Oeste 0 -- -- 93
2017-11-13 05:00:00 3.4 5 Oeste 12 Noroeste 0 -- -- 94
2017-11-13 04:00:00 3.6 9 Oeste 15 Noroeste 0 -- -- 94
2017-11-13 03:00:00 5 12 Noroeste 19 Noroeste 0 -- -- 94
2017-11-13 02:00:00 4.4 13 Noroeste 14 Noroeste 0 -- -- 93
2017-11-13 01:00:00 5.1 6 Oeste 11 Noroeste 0 -- -- 92
2017-11-13 00:00:00 6.1 6 Noroeste 15 Oeste 0 -- -- 91
2017-11-12 23:00:00 7.2 9 Oeste 19 Noroeste 0 -- -- 90
2017-11-12 22:00:00 7.8 16 Noroeste 22 Noroeste 0 -- -- 91
2017-11-12 21:00:00 5.9 5 Noroeste 13 Oeste 0 -- -- 89
2017-11-12 20:00:00 8 13 Oeste 26 Oeste 0 -- -- 87
2017-11-12 19:00:00 9.2 19 Oeste 27 Oeste 0 -- -- 83
2017-11-12 18:00:00 11.2 18 Oeste 33 Oeste 0 -- -- 74
2017-11-12 17:00:00 13.8 20 Oeste 33 Noroeste 0 -- -- 61
2017-11-12 16:00:00 13.5 23 Oeste 37 Noroeste 0 -- -- 62
2017-11-12 15:00:00 13.2 24 Noroeste 31 Noroeste 0 -- -- 62
2017-11-12 14:00:00 12.3 17 Oeste 31 Oeste 0 -- -- 65
2017-11-12 13:00:00 10.7 19 Noroeste 29 Noroeste 0 -- -- 68
2017-11-12 12:00:00 8.7 16 Noroeste 28 Noroeste 0 -- -- 77
2017-11-12 11:00:00 7.2 13 Noroeste 22 Noroeste 0 -- -- 83
2017-11-12 10:00:00 4.7 0 Calma 7 Norte 0 -- -- 87
2017-11-12 09:00:00 0.9 5 Norte 9 Norte 0 -- -- 90
2017-11-12 08:00:00 0.4 5 Norte 16 Noroeste 0 -- -- 90
2017-11-12 07:00:00 1 10 Noroeste 18 Noroeste 0 -- -- 94
2017-11-12 06:00:00 3.6 11 Noroeste 22 Noroeste 0 -- -- 96
2017-11-12 05:00:00 1.9 7 Norte 22 Noroeste 0 -- -- 94
2017-11-12 04:00:00 2.3 9 Noroeste 14 Noroeste 0 -- -- 96
2017-11-12 03:00:00 1.6 10 Noroeste 13 Noroeste 0 -- -- 94
2017-11-12 02:00:00 2.2 10 Noroeste 13 Noroeste 0 -- -- 94
2017-11-12 01:00:00 1.1 9 Norte 11 Norte 0 -- -- 89
2017-11-12 00:00:00 1.9 9 Norte 11 Norte 0 -- -- 89
2017-11-11 23:00:00 2.4 8 Norte 12 Noroeste 0 -- -- 89
2017-11-11 22:00:00 3.5 8 Norte 10 Noroeste 0 -- -- 88
2017-11-11 21:00:00 5.3 6 Noroeste 12 Noroeste 0 -- -- 85
2017-11-11 20:00:00 6.3 9 Noroeste 12 Noroeste 0 -- -- 82
2017-11-11 19:00:00 7.3 9 Noroeste 13 Norte 0 -- -- 74
2017-11-11 18:00:00 11.9 6 Norte 9 Norte 0 -- -- 57
2017-11-11 17:00:00 15.2 7 Sudoeste 10 Sudoeste 0 -- -- 50
2017-11-11 16:00:00 15 3 Sur 9 Oeste 0 -- -- 51
2017-11-11 15:00:00 13.7 5 Oeste 12 Sudoeste 0 -- -- 53
2017-11-11 14:00:00 12.3 4 Sudoeste 12 Sudoeste 0 -- -- 60
2017-11-11 13:00:00 10.9 6 Sudoeste 13 Sudoeste 0 -- -- 67
2017-11-11 12:00:00 9.6 5 Sudoeste 11 Sur 0 -- -- 74
2017-11-11 11:00:00 7.6 6 Noroeste 15 Noroeste 0 -- -- 86
2017-11-11 10:00:00 4 13 Noroeste 17 Norte 0 -- -- 97
2017-11-11 09:00:00 2.1 6 Norte 12 Noroeste 0 -- -- 96
2017-11-11 08:00:00 -0.4 8 Norte 13 Norte 0 -- -- 93
2017-11-11 07:00:00 0.7 10 Noroeste 14 Norte 0 -- -- 94
2017-11-11 06:00:00 0.7 9 Noroeste 14 Noroeste 0 -- -- 92
2017-11-11 05:00:00 0.9 6 Noroeste 9 Noroeste 0 -- -- 91
2017-11-11 04:00:00 1.9 7 Noroeste 9 Noroeste 0 -- -- 92
2017-11-11 03:00:00 3 2 Sur 16 Noroeste 0 -- -- 90
2017-11-11 02:00:00 3.3 8 Noroeste 13 Norte 0 -- -- 91
2017-11-11 01:00:00 4.3 6 Norte 9 Noroeste 0 -- -- 85
2017-11-11 00:00:00 4.5 3 Nordeste 21 Noroeste 0 -- -- 83
2017-11-10 23:00:00 5.3 13 Noroeste 19 Noroeste 0 -- -- 84
2017-11-10 22:00:00 5.3 6 Noroeste 13 Norte 0 -- -- 83
2017-11-10 21:00:00 6.4 12 Norte 16 Norte 0 -- -- 82
2017-11-10 20:00:00 6.5 11 Norte 16 Norte 0 -- -- 81
2017-11-10 19:00:00 7.4 10 Norte 13 Norte 0 -- -- 76
2017-11-10 18:00:00 12.4 9 Norte 15 Noroeste 0 -- -- 57
2017-11-10 17:00:00 16 5 Noroeste 17 Norte 0 -- -- 46
2017-11-10 16:00:00 17 11 Noroeste 23 Norte 0 -- -- 36
2017-11-10 15:00:00 16.8 17 Norte 33 Norte 0 -- -- 35
2017-11-10 14:00:00 16.4 15 Norte 34 Norte 0 -- -- 42
2017-11-10 13:00:00 15.8 21 Norte 38 Noroeste 0 -- -- 50
2017-11-10 12:00:00 15.1 23 Noroeste 34 Norte 0 -- -- 55
2017-11-10 11:00:00 12 5 Oeste 21 Norte 0 -- -- 73
2017-11-10 10:00:00 9.1 9 Noroeste 19 Noroeste 0 -- -- 85
2017-11-10 09:00:00 6.3 12 Noroeste 20 Noroeste 0 -- -- 95
2017-11-10 08:00:00 3.4 3 Noroeste 14 Noroeste 0 -- -- 95
2017-11-10 07:00:00 3.3 11 Noroeste 13 Noroeste 0 -- -- 95
2017-11-10 06:00:00 3.4 8 Oeste 11 Oeste 0 -- -- 93
2017-11-10 05:00:00 3.6 9 Oeste 13 Oeste 0 -- -- 91
2017-11-10 04:00:00 4 10 Oeste 15 Noroeste 0 -- -- 89
2017-11-10 03:00:00 3.9 13 Noroeste 17 Noroeste 0 -- -- 90
2017-11-10 02:00:00 3.3 12 Noroeste 15 Noroeste 0 -- -- 92
2017-11-10 01:00:00 3.3 10 Noroeste 15 Noroeste 0 -- -- 92
2017-11-10 00:00:00 2.1 8 Noroeste 12 Norte 0 -- -- 91
2017-11-09 23:00:00 3.3 9 Noroeste 12 Noroeste 0 -- -- 88
2017-11-09 22:00:00 3.6 11 Noroeste 13 Noroeste 0 -- -- 89
2017-11-09 21:00:00 4.2 9 Noroeste 13 Noroeste 0 -- -- 84
2017-11-09 20:00:00 5.7 10 Noroeste 16 Norte 0 -- -- 79
2017-11-09 19:00:00 6.4 15 Norte 20 Norte 0 -- -- 75
2017-11-09 18:00:00 8.1 14 Norte 26 Norte 0 -- -- 67
2017-11-09 17:00:00 9.9 20 Norte 28 Norte 0 -- -- 60
2017-11-09 16:00:00 11.1 24 Noroeste 35 Noroeste 0 -- -- 54
2017-11-09 15:00:00 11.8 20 Norte 38 Noroeste 0 -- -- 49
2017-11-09 14:00:00 11.9 22 Noroeste 33 Noroeste 0 -- -- 53
2017-11-09 13:00:00 10.9 16 Norte 25 Norte 0 -- -- 55
2017-11-09 12:00:00 9.6 2 Sur 10 Sudoeste 0 -- -- 56
2017-11-09 11:00:00 7.2 3 Sur 8 Oeste 0 -- -- 64
2017-11-09 10:00:00 4.5 0 Calma 5 Este 0 -- -- 71
2017-11-09 09:00:00 1 7 Noroeste 13 Noroeste 0 -- -- 86
2017-11-09 08:00:00 -0.5 9 Oeste 19 Noroeste 0 -- -- 86
2017-11-09 07:00:00 -2.1 2 Noroeste 9 Noroeste 0 -- -- 90
2017-11-09 06:00:00 -1.9 7 Noroeste 10 Noroeste 0 -- -- 90
2017-11-09 05:00:00 -0.7 9 Noroeste 13 Noroeste 0 -- -- 88
2017-11-09 04:00:00 -0.8 4 Noroeste 9 Noroeste 0 -- -- 88
2017-11-09 03:00:00 -0.1 7 Oeste 10 Noroeste 0 -- -- 90
2017-11-09 02:00:00 0.4 8 Noroeste 10 Noroeste 0 -- -- 87
2017-11-09 01:00:00 -0.1 8 Noroeste 12 Noroeste 0 -- -- 84
2017-11-09 00:00:00 -0.2 10 Noroeste 15 Noroeste 0 -- -- 87
2017-11-08 23:00:00 0.4 9 Noroeste 18 Norte 0 -- -- 85
2017-11-08 22:00:00 0.9 10 Norte 13 Norte 0 -- -- 87
2017-11-08 21:00:00 1.3 3 Sudoeste 12 Noroeste 0 -- -- 90
2017-11-08 20:00:00 2.5 12 Norte 19 Norte 0 -- -- 87
2017-11-08 19:00:00 3.1 9 Norte 28 Norte 0 -- -- 84
2017-11-08 18:00:00 6.1 21 Norte 28 Norte 0 -- -- 74
2017-11-08 17:00:00 7.4 17 Norte 33 Noroeste 0 -- -- 73
2017-11-08 16:00:00 10.5 22 Oeste 42 Noroeste 0 -- -- 51
2017-11-08 15:00:00 10.7 27 Noroeste 39 Noroeste 0 -- -- 55
2017-11-08 14:00:00 10.3 23 Noroeste 39 Noroeste 0 -- -- 55
2017-11-08 13:00:00 10 16 Oeste 31 Noroeste 0 -- -- 55
2017-11-08 12:00:00 8.1 14 Oeste 34 Oeste 0 -- -- 67
2017-11-08 11:00:00 6.9 17 Oeste 24 Oeste 0 -- -- 74
2017-11-08 10:00:00 4.3 15 Oeste 21 Oeste 0 -- -- 84
2017-11-08 09:00:00 2 9 Noroeste 12 Noroeste 0 -- -- 88
2017-11-08 08:00:00 0.9 3 Noroeste 6 Norte 0 -- -- 87
2017-11-08 07:00:00 1.3 6 Noroeste 14 Noroeste 0 -- -- 89
2017-11-08 06:00:00 1.4 8 Noroeste 16 Norte 0 -- -- 92
2017-11-08 05:00:00 2.4 0 Calma 18 Noroeste 0 -- -- 90
2017-11-08 04:00:00 2.6 14 Noroeste 17 Noroeste 0 -- -- 90
2017-11-08 03:00:00 2.8 13 Noroeste 16 Noroeste 0 -- -- 88
2017-11-08 02:00:00 3 6 Oeste 9 Noroeste 0 -- -- 84
2017-11-08 01:00:00 3.9 8 Oeste 17 Noroeste 0 -- -- 82
2017-11-08 00:00:00 4.8 13 Noroeste 21 Noroeste 0 -- -- 81
2017-11-07 23:00:00 5.6 14 Noroeste 26 Noroeste 0 -- -- 85
2017-11-07 22:00:00 6.5 10 Noroeste 20 Noroeste 0 -- -- 88
2017-11-07 21:00:00 6.6 8 Noroeste 15 Noroeste 0 -- -- 89
2017-11-07 20:00:00 6.9 10 Oeste 19 Noroeste 0 -- -- 86
2017-11-07 19:00:00 8.1 14 Oeste 33 Oeste 0 -- -- 83
2017-11-07 18:00:00 9.8 18 Oeste 40 Noroeste 0 -- -- 78
2017-11-07 17:00:00 12.9 28 Noroeste 40 Oeste 0 -- -- 64
2017-11-07 16:00:00 13.2 23 Noroeste 33 Oeste 0 -- -- 60
2017-11-07 15:00:00 14.5 21 Oeste 31 Oeste 0 -- -- 50
2017-11-07 14:00:00 13 9 Sudoeste 18 Sudoeste 0 -- -- 59
2017-11-07 13:00:00 9.9 8 Sudoeste 13 Sudoeste 0 -- -- 69
2017-11-07 12:00:00 8.2 6 Sudoeste 10 Sudoeste 0 -- -- 78
2017-11-07 11:00:00 6.1 4 Oeste 9 Oeste 0 -- -- 82
2017-11-07 10:00:00 3.3 5 Noroeste 8 Noroeste 0 -- -- 94
2017-11-07 09:00:00 0.4 3 Noroeste 7 Norte 0 -- -- 97
2017-11-07 08:00:00 -1.2 6 Norte 9 Norte 0 -- -- 96
2017-11-07 07:00:00 -1.4 6 Norte 8 Norte 0 -- -- 96
2017-11-07 06:00:00 -1.6 5 Norte 6 Norte 0 -- -- 95
2017-11-07 05:00:00 -0.6 3 Norte 3 Norte 0 -- -- 94
2017-11-07 04:00:00 0.3 0 Calma 3 Noroeste 0 -- -- 95
2017-11-07 03:00:00 -0.1 3 Norte 6 Norte 0 -- -- 95
2017-11-07 02:00:00 0.6 5 Noroeste 7 Noroeste 0 -- -- 94
2017-11-07 01:00:00 1.3 4 Noroeste 5 Noroeste 0 -- -- 93
2017-11-07 00:00:00 2.3 3 Noroeste 6 Oeste 0 -- -- 91
2017-11-06 23:00:00 3.5 2 Nordeste 8 Este 0 -- -- 85
2017-11-06 22:00:00 4.3 6 Este 12 Este 0 -- -- 87
2017-11-06 21:00:00 5.4 2 Nordeste 9 Nordeste 0 -- -- 81
2017-11-06 20:00:00 6.6 3 Norte 15 Nordeste 0 -- -- 75
2017-11-06 19:00:00 8.2 11 Nordeste 18 Nordeste 0 -- -- 72
2017-11-06 18:00:00 11.3 7 Nordeste 13 Nordeste 0 -- -- 61
2017-11-06 17:00:00 13.5 0 Calma 8 Este 0 -- -- 49
2017-11-06 16:00:00 13.1 4 Sudeste 19 Este 0 -- -- 50
2017-11-06 15:00:00 12.9 4 Sudeste 19 Este 0 -- -- 50
2017-11-06 14:00:00 12.3 3 Este 18 Oeste 0 -- -- 51
2017-11-06 13:00:00 11.8 4 Oeste 15 Noroeste 0 -- -- 55
2017-11-06 12:00:00 10.6 3 Oeste 18 Noroeste 0 -- -- 60
2017-11-06 11:00:00 8.6 6 Sudoeste 14 Sudoeste 0 -- -- 74
2017-11-06 10:00:00 6 3 Oeste 10 Noroeste 0 -- -- 84
2017-11-06 09:00:00 3.1 7 Norte 9 Norte 0 -- -- 95
2017-11-06 08:00:00 2.1 5 Oeste 8 Oeste 0 -- -- 93
2017-11-06 07:00:00 2.9 6 Oeste 11 Noroeste 0 -- -- 91
2017-11-06 06:00:00 4.3 11 Noroeste 17 Noroeste 0 -- -- 88
2017-11-06 05:00:00 4 13 Noroeste 24 Noroeste 0 -- -- 91
2017-11-06 04:00:00 3.8 19 Noroeste 26 Noroeste 0 -- -- 92
2017-11-06 03:00:00 3.3 10 Norte 18 Noroeste 0 -- -- 91
2017-11-06 02:00:00 3.5 11 Noroeste 18 Noroeste 0 -- -- 93
2017-11-06 01:00:00 3.4 9 Noroeste 10 Noroeste 0 -- -- 92
2017-11-06 00:00:00 3.1 4 Sudoeste 14 Noroeste 0 -- -- 92
2017-11-05 23:00:00 3.8 9 Noroeste 15 Noroeste 0 -- -- 90
2017-11-05 22:00:00 4.4 13 Noroeste 17 Noroeste 0 -- -- 88
2017-11-05 21:00:00 4 6 Oeste 10 Noroeste 0 -- -- 87
2017-11-05 20:00:00 5 10 Noroeste 13 Noroeste 0 -- -- 81
2017-11-05 19:00:00 6.3 7 Noroeste 23 Norte 0 -- -- 78
2017-11-05 18:00:00 8.8 14 Noroeste 32 Noroeste 0 -- -- 67
2017-11-05 17:00:00 9.6 22 Noroeste 32 Noroeste 0 -- -- 65
2017-11-05 16:00:00 9 12 Noroeste 25 Norte 0 -- -- 77
2017-11-05 15:00:00 9.3 19 Noroeste 33 Noroeste 0.4 -- -- 73
2017-11-05 14:00:00 11 20 Noroeste 34 Noroeste 0 -- -- 62
2017-11-05 13:00:00 10.8 24 Noroeste 34 Noroeste 0 -- -- 62
2017-11-05 12:00:00 9.6 21 Noroeste 30 Noroeste 0 -- -- 72
2017-11-05 11:00:00 8.4 18 Noroeste 26 Oeste 0 -- -- 78
2017-11-05 10:00:00 6.9 17 Oeste 28 Noroeste 0 -- -- 86
2017-11-05 09:00:00 5.1 4 Noroeste 18 Oeste 0 -- -- 93
2017-11-05 08:00:00 4.5 13 Noroeste 28 Oeste 0 -- -- 91
2017-11-05 07:00:00 4.5 6 Noroeste 19 Noroeste 0 -- -- 91
2017-11-05 06:00:00 5 8 Noroeste 22 Noroeste 0 -- -- 91
2017-11-05 05:00:00 6 17 Noroeste 27 Noroeste 0 -- -- 91
2017-11-05 04:00:00 6.1 17 Noroeste 22 Noroeste 0 -- -- 91
2017-11-05 03:00:00 6.3 17 Noroeste 21 Noroeste 0 -- -- 90
2017-11-05 02:00:00 7.3 16 Noroeste 23 Noroeste 0 -- -- 90
2017-11-05 01:00:00 7.9 14 Noroeste 26 Noroeste 0 -- -- 90
2017-11-05 00:00:00 8 15 Noroeste 27 Oeste 0 -- -- 90
2017-11-04 23:00:00 8.3 18 Noroeste 23 Noroeste 0 -- -- 90
2017-11-04 22:00:00 7.9 10 Noroeste 19 Noroeste 0 -- -- 92
2017-11-04 21:00:00 9 11 Noroeste 21 Oeste 0 -- -- 91
2017-11-04 20:00:00 9.4 11 Noroeste 18 Noroeste 0 -- -- 91
2017-11-04 19:00:00 10.4 6 Noroeste 17 Noroeste 0 -- -- 89
2017-11-04 18:00:00 11 16 Noroeste 30 Noroeste 0.8 -- -- 89
2017-11-04 17:00:00 12.3 12 Noroeste 17 Noroeste 0 -- -- 83
2017-11-04 16:00:00 11.7 11 Noroeste 29 Oeste 0.4 -- -- 90
2017-11-04 15:00:00 13.8 12 Oeste 27 Oeste 0 -- -- 75
2017-11-04 14:00:00 13.4 4 Sudeste 12 Este 0 -- -- 73
2017-11-04 13:00:00 13.1 6 Nordeste 12 Nordeste 0 -- -- 76
2017-11-04 12:00:00 12.7 3 Nordeste 11 Este 0 -- -- 81
2017-11-04 11:00:00 11.2 4 Nordeste 10 Nordeste 0 -- -- 88
2017-11-04 10:00:00 9.9 3 Nordeste 7 Nordeste 0 -- -- 95
2017-11-04 09:00:00 9.4 4 Nordeste 8 Nordeste 0 -- -- 95
2017-11-04 08:00:00 9.2 4 Nordeste 6 Nordeste 0 -- -- 95
2017-11-04 07:00:00 9.1 4 Nordeste 12 Norte 0 -- -- 95
2017-11-04 06:00:00 8.9 5 Nordeste 10 Nordeste 0.2 -- -- 96
2017-11-04 05:00:00 8.9 5 Nordeste 10 Norte 0.4 -- -- 96
2017-11-04 04:00:00 8.9 4 Nordeste 5 Nordeste 0 -- -- 95
2017-11-04 03:00:00 9.1 2 Sudeste 13 Este 2.6 -- -- 94
2017-11-04 02:00:00 9.1 10 Nordeste 14 Nordeste 0 -- -- 92
2017-11-04 01:00:00 8.7 8 Nordeste 11 Nordeste 0 -- -- 95
2017-11-04 00:00:00 8.1 8 Nordeste 10 Nordeste 0 -- -- 94
2017-11-03 23:00:00 9.1 5 Nordeste 9 Este 0 -- -- 91
2017-11-03 22:00:00 10.1 5 Este 11 Este 0 -- -- 88
2017-11-03 21:00:00 9.6 9 Este 11 Este 0 -- -- 91
2017-11-03 20:00:00 10.5 5 Este 8 Este 0 -- -- 89
2017-11-03 19:00:00 10.9 2 Este 8 Sur 0 -- -- 85
2017-11-03 18:00:00 11.3 8 Sudoeste 19 Sur 0 -- -- 82
2017-11-03 17:00:00 12.6 11 Sudoeste 19 Sudoeste 0.4 -- -- 80
2017-11-03 16:00:00 13 11 Sudoeste 27 Sur 0 -- -- 78
2017-11-03 15:00:00 15 19 Sur 26 Sur 0 -- -- 66
2017-11-03 14:00:00 13.8 16 Sudoeste 30 Sur 0 -- -- 75
2017-11-03 13:00:00 12.1 12 Sudoeste 22 Sudoeste 1.2 -- -- 89
2017-11-03 12:00:00 11.6 15 Sur 27 Sur 0.8 -- -- 89
2017-11-03 11:00:00 10.8 12 Sur 23 Sur 0 -- -- 94
2017-11-03 10:00:00 10 14 Sur 21 Sur 0 -- -- 96
2017-11-03 09:00:00 9.6 10 Sur 15 Sur 1 -- -- 97
2017-11-03 08:00:00 9.4 8 Sudeste 13 Sudeste 1.4 -- -- 96
2017-11-03 07:00:00 9.4 10 Sudeste 14 Sudeste 0 -- -- 95
2017-11-03 06:00:00 9.1 10 Sur 27 Este 0.4 -- -- 95
2017-11-03 05:00:00 9.7 13 Sudeste 24 Este 2.6 -- -- 96
2017-11-03 04:00:00 9.2 8 Sudeste 16 Oeste 9.6 -- -- 96
2017-11-03 03:00:00 10.6 8 Este 10 Este 0.4 -- -- 96
2017-11-03 02:00:00 10.2 4 Nordeste 8 Este 0 -- -- 96
2017-11-03 01:00:00 10.1 6 Este 11 Este 0 -- -- 96
2017-11-03 00:00:00 10 7 Este 10 Este 0 -- -- 96
2017-11-02 23:00:00 9.9 3 Nordeste 15 Este 3 -- -- 95
2017-11-02 22:00:00 9.8 0 Calma 35 Oeste 2.4 -- -- 93
2017-11-02 21:00:00 10 5 Nordeste 19 Oeste 0.2 -- -- 93
2017-11-02 20:00:00 10 8 Nordeste 13 Nordeste 0 -- -- 92
2017-11-02 19:00:00 10.4 2 Nordeste 5 Nordeste 0.2 -- -- 90
2017-11-02 18:00:00 10.9 0 Calma 24 Sudoeste 0 -- -- 87
2017-11-02 17:00:00 12.2 22 Sur 34 Sur 0 -- -- 85
2017-11-02 16:00:00 12.6 10 Sudeste 17 Este 0 -- -- 89
2017-11-02 15:00:00 12.3 11 Este 22 Sudeste 0.4 -- -- 89
2017-11-02 14:00:00 13.6 7 Sudeste 13 Sudeste 0 -- -- 79
2017-11-02 13:00:00 12.5 4 Este 9 Este 0.2 -- -- 80
2017-11-02 12:00:00 12.5 4 Sudeste 11 Sudeste 0.2 -- -- 80
2017-11-02 11:00:00 13.1 5 Sudeste 10 Sudeste 0 -- -- 72
2017-11-02 10:00:00 11.8 6 Sudeste 13 Este 0 -- -- 72
2017-11-02 09:00:00 10.4 7 Este 10 Este 0 -- -- 78
2017-11-02 08:00:00 10.2 3 Este 6 Este 0 -- -- 78
2017-11-02 07:00:00 10.2 5 Este 11 Este 0 -- -- 74
2017-11-02 06:00:00 10.2 5 Este 9 Nordeste 0 -- -- 73
2017-11-02 05:00:00 10.7 5 Nordeste 10 Nordeste 0 -- -- 71
2017-11-02 04:00:00 10.8 8 Nordeste 10 Este 0 -- -- 71
2017-11-02 03:00:00 10.7 5 Nordeste 10 Nordeste 0 -- -- 71
2017-11-02 02:00:00 10.5 9 Este 12 Este 0 -- -- 72
2017-11-02 01:00:00 10.8 5 Este 10 Este 0 -- -- 71
2017-11-02 00:00:00 10.8 6 Este 11 Este 0 -- -- 71
2017-11-01 23:00:00 11.5 5 Este 8 Este 0 -- -- 68
2017-11-01 22:00:00 11.9 4 Sudeste 5 Sudeste 0 -- -- 65
2017-11-01 21:00:00 11.6 5 Este 6 Este 0 -- -- 66
2017-11-01 20:00:00 11.1 3 Nordeste 8 Este 0 -- -- 66
2017-11-01 19:00:00 12.6 5 Nordeste 7 Nordeste 0 -- -- 61
2017-11-01 18:00:00 14.3 4 Este 5 Este 0 -- -- 56
2017-11-01 17:00:00 15.8 3 Sur 5 Sur 0 -- -- 51
2017-11-01 16:00:00 16.3 2 Sur 14 Sudoeste 0 -- -- 49
2017-11-01 15:00:00 17 6 Sur 14 Sudoeste 0 -- -- 47
2017-11-01 14:00:00 15.7 3 Sur 10 Sur 0 -- -- 50
2017-11-01 13:00:00 14 3 Este 11 Este 0 -- -- 52
2017-11-01 12:00:00 12.7 3 Este 9 Este 0 -- -- 54
2017-11-01 11:00:00 11 4 Este 8 Sudeste 0 -- -- 61
2017-11-01 10:00:00 7.6 0 Calma 3 Nordeste 0 -- -- 74
2017-11-01 09:00:00 4.5 2 Noroeste 6 Noroeste 0 -- -- 83
2017-11-01 08:00:00 2 3 Noroeste 5 Noroeste 0 -- -- 89
2017-11-01 07:00:00 1.5 4 Norte 6 Noroeste 0 -- -- 90
2017-11-01 06:00:00 0.5 5 Norte 7 Noroeste 0 -- -- 90
2017-11-01 05:00:00 0.3 6 Noroeste 9 Noroeste 0 -- -- 90
2017-11-01 04:00:00 0.2 4 Norte 8 Norte 0 -- -- 88
2017-11-01 03:00:00 0.4 5 Noroeste 9 Norte 0 -- -- 86
2017-11-01 02:00:00 1.2 4 Norte 7 Noroeste 0 -- -- 86
2017-11-01 01:00:00 1.5 5 Norte 8 Noroeste 0 -- -- 84
2017-11-01 00:00:00 2 6 Norte 9 Noroeste 0 -- -- 82
2017-10-31 23:00:00 2.2 5 Norte 8 Noroeste 0 -- -- 83
2017-10-31 22:00:00 3.8 5 Norte 12 Noroeste 0 -- -- 76
2017-10-31 21:00:00 4.8 6 Noroeste 7 Norte 0 -- -- 71
2017-10-31 20:00:00 7.4 5 Norte 7 Nordeste 0 -- -- 67
2017-10-31 19:00:00 9 0 Calma 3 Este 0 -- -- 58
2017-10-31 18:00:00 12.8 2 Este 5 Sudoeste 0 -- -- 49
2017-10-31 17:00:00 14.2 3 Sur 10 Sudeste 0 -- -- 45
2017-10-31 16:00:00 14 3 Este 10 Este 0 -- -- 45
2017-10-31 15:00:00 13.6 4 Sudeste 10 Este 0 -- -- 42
2017-10-31 14:00:00 12.3 3 Este 11 Nordeste 0 -- -- 47
2017-10-31 13:00:00 11.6 3 Sudeste 9 Sudeste 0 -- -- 49
2017-10-31 12:00:00 9.5 3 Este 11 Nordeste 0 -- -- 58
2017-10-31 11:00:00 6.7 5 Noroeste 11 Norte 0 -- -- 78
2017-10-31 10:00:00 4.3 4 Norte 8 Noroeste 0 -- -- 92
2017-10-31 09:00:00 4.3 5 Norte 9 Norte 0 -- -- 93
2017-10-31 08:00:00 4.9 0 Calma 6 Norte 0 -- -- 92
2017-10-31 07:00:00 4.8 0 Calma 5 Sudeste 0 -- -- 91
2017-10-31 06:00:00 5 0 Calma 4 Sudeste 0 -- -- 96
2017-10-31 05:00:00 2.1 0 Calma 5 Norte 0 -- -- 96
2017-10-31 04:00:00 0.6 0 Calma 10 Norte 0 -- -- 95
2017-10-31 03:00:00 0.6 5 Norte 9 Norte 0 -- -- 92
2017-10-31 02:00:00 1.2 5 Norte 9 Noroeste 0 -- -- 92
2017-10-31 01:00:00 1.9 4 Noroeste 5 Noroeste 0 -- -- 89
2017-10-31 00:00:00 4.1 0 Calma 4 Sudeste 0 -- -- 88
2017-10-30 23:00:00 5.7 4 Sudeste 7 Sudeste 0 -- -- 87
2017-10-30 22:00:00 6.6 2 Sudeste 8 Este 0 -- -- 82
2017-10-30 21:00:00 8 6 Este 8 Sudeste 0 -- -- 71
2017-10-30 20:00:00 9.3 0 Calma 15 Norte 0 -- -- 65
2017-10-30 19:00:00 11 12 Norte 15 Norte 0 -- -- 61
2017-10-30 18:00:00 15.1 12 Norte 24 Noroeste 0 -- -- 47
2017-10-30 17:00:00 17.9 12 Norte 21 Norte 0 -- -- 44
2017-10-30 16:00:00 19.3 8 Nordeste 19 Este 0 -- -- 41
2017-10-30 15:00:00 19.3 6 Norte 19 Norte 0 -- -- 41
2017-10-30 14:00:00 18.5 2 Nordeste 10 Nordeste 0 -- -- 44
2017-10-30 13:00:00 16.9 3 Sudoeste 10 Sudeste 0 -- -- 49
2017-10-30 12:00:00 14.9 5 Sur 12 Sur 0 -- -- 57
2017-10-30 11:00:00 13 4 Sur 11 Sur 0 -- -- 64
2017-10-30 10:00:00 10.5 3 Sudeste 7 Este 0 -- -- 75
2017-10-30 09:00:00 5.8 2 Sudeste 5 Sudeste 0 -- -- 90
2017-10-30 08:00:00 4.1 2 Norte 7 Norte 0 -- -- 92
2017-10-30 07:00:00 2.6 2 Norte 5 Oeste 0 -- -- 92
2017-10-30 06:00:00 2.7 2 Noroeste 5 Noroeste 0 -- -- 93
2017-10-30 05:00:00 3.6 2 Noroeste 9 Noroeste 0 -- -- 95
2017-10-30 04:00:00 2.8 6 Noroeste 9 Noroeste 0 -- -- 94
2017-10-30 03:00:00 2.3 6 Noroeste 8 Noroeste 0 -- -- 90
2017-10-30 02:00:00 2.9 2 Noroeste 6 Noroeste 0 -- -- 90
2017-10-30 01:00:00 4.4 2 Noroeste 7 Oeste 0 -- -- 85
2017-10-30 00:00:00 5.4 0 Calma 3 Sur 0 -- -- 85
2017-10-29 23:00:00 7.1 0 Calma 3 Noroeste 0 -- -- 83
2017-10-29 22:00:00 7.7 2 Noroeste 12 Este 0 -- -- 79
2017-10-29 21:00:00 9.9 6 Este 12 Este 0 -- -- 73
2017-10-29 20:00:00 12.5 9 Nordeste 18 Nordeste 0 -- -- 61
2017-10-29 19:00:00 15.1 6 Nordeste 14 Nordeste 0 -- -- 52
2017-10-29 18:00:00 17.7 4 Este 9 Sudeste 0 -- -- 35
2017-10-29 17:00:00 20.3 6 Sudeste 17 Este 0 -- -- 31
2017-10-29 16:00:00 21.4 9 Sudeste 17 Sudeste 0 -- -- 30
2017-10-29 15:00:00 21.3 5 Sudeste 12 Este 0 -- -- 29
2017-10-29 14:00:00 20.3 5 Sur 10 Sur 0 -- -- 30
2017-10-29 13:00:00 18.2 4 Sur 9 Sur 0 -- -- 32
2017-10-29 12:00:00 16.5 4 Sur 10 Este 0 -- -- 33
2017-10-29 11:00:00 13.4 2 Sudeste 6 Sur 0 -- -- 45
2017-10-29 10:00:00 9.9 0 Calma 3 Sudoeste 0 -- -- 56
2017-10-29 09:00:00 4.4 0 Calma 4 Noroeste 0 -- -- 81
2017-10-29 08:00:00 1.8 3 Noroeste 4 Noroeste 0 -- -- 83
2017-10-29 07:00:00 2.3 2 Nordeste 4 Este 0 -- -- 82
2017-10-29 06:00:00 2.5 4 Nordeste 5 Nordeste 0 -- -- 84
2017-10-29 05:00:00 1.7 4 Noroeste 8 Norte 0 -- -- 86
2017-10-29 04:00:00 3.2 5 Noroeste 7 Norte 0 -- -- 78
2017-10-29 03:00:00 2.3 6 Norte 10 Norte 0 -- -- 85
2017-10-29 02:00:00 3.2 7 Noroeste 8 Norte 0 -- -- 83
2017-10-29 01:00:00 4.9 3 Noroeste 6 Noroeste 0 -- -- 81
2017-10-29 00:00:00 6.9 3 Oeste 5 Oeste 0 -- -- 78
2017-10-28 23:00:00 7 3 Noroeste 5 Noroeste 0 -- -- 76
2017-10-28 22:00:00 9.1 2 Nordeste 4 Este 0 -- -- 70
2017-10-28 21:00:00 12 3 Este 5 Sudeste 0 -- -- 61
2017-10-28 20:00:00 15.4 3 Sudeste 4 Este 0 -- -- 52
2017-10-28 19:00:00 19.7 2 Sudeste 7 Sur 0 -- -- 41
2017-10-28 18:00:00 20.3 5 Sudeste 15 Sudeste 0 -- -- 40
2017-10-28 17:00:00 20.3 9 Sudeste 16 Sudeste 0 -- -- 40
2017-10-28 16:00:00 20.1 6 Sur 14 Sudeste 0 -- -- 42
2017-10-28 15:00:00 18.8 5 Sur 12 Sur 0 -- -- 48
2017-10-28 14:00:00 17.1 3 Sudoeste 9 Sudoeste 0 -- -- 54
2017-10-28 13:00:00 15.2 0 Calma 6 Sur 0 -- -- 64
2017-10-28 12:00:00 13.3 0 Calma 9 Oeste 0 -- -- 72
2017-10-28 11:00:00 10.6 6 Noroeste 9 Noroeste 0 -- -- 84
2017-10-28 10:00:00 6 4 Noroeste 6 Noroeste 0 -- -- 95
2017-10-28 09:00:00 3 4 Norte 8 Norte 0 -- -- 93
2017-10-28 08:00:00 2.7 6 Norte 8 Norte 0 -- -- 90
2017-10-28 07:00:00 4.3 4 Noroeste 5 Noroeste 0 -- -- 88
2017-10-28 06:00:00 4.5 4 Noroeste -- -- 0 -- -- 87
2017-10-28 05:00:00 6.1 0 Calma 3 Norte 0 -- -- 89
2017-10-28 04:00:00 7.3 2 Sudoeste 8 Sur 0 -- -- 83
2017-10-28 03:00:00 8.6 5 Sur 8 Sudoeste 0 -- -- 72
2017-10-28 02:00:00 10 2 Sur 7 Nordeste 0 -- -- 61
2017-10-28 01:00:00 12.3 5 Norte 12 Norte 0 -- -- 52
2017-10-28 00:00:00 12.8 9 Norte 13 Norte 0 -- -- 52
2017-10-27 23:00:00 13.8 4 Noroeste 12 Noroeste 0 -- -- 49
2017-10-27 22:00:00 13.4 12 Norte 15 Norte 0 -- -- 50
2017-10-27 21:00:00 16 14 Norte 20 Noroeste 0 -- -- 42
2017-10-27 20:00:00 17.7 12 Noroeste 19 Norte 0 -- -- 38
2017-10-27 19:00:00 21.9 13 Noroeste 37 Norte 0 -- -- 30
2017-10-27 18:00:00 24.5 22 Norte 38 Norte 0 -- -- 25
2017-10-27 17:00:00 25.6 29 Norte 42 Norte 0 -- -- 24
2017-10-27 16:00:00 26.5 27 Norte 40 Noroeste 0 -- -- 23
2017-10-27 15:00:00 25.6 10 Norte 35 Norte 0 -- -- 25
2017-10-27 14:00:00 23.2 4 Sudoeste 9 Sur 0 -- -- 33
2017-10-27 13:00:00 20.9 5 Sudeste 10 Sudeste 0 -- -- 40
2017-10-27 12:00:00 19.2 3 Sudeste 10 Norte 0 -- -- 45
2017-10-27 11:00:00 14.4 8 Norte 14 Norte 0 -- -- 59
2017-10-27 10:00:00 8.8 5 Norte 12 Noroeste 0 -- -- 81
2017-10-27 09:00:00 6.1 8 Norte 16 Norte 0 -- -- 85
2017-10-27 08:00:00 6.5 7 Norte 15 Noroeste 0 -- -- 83
2017-10-27 07:00:00 7.3 12 Norte 16 Norte 0 -- -- 83
2017-10-27 06:00:00 7.2 10 Noroeste 14 Noroeste 0 -- -- 84
2017-10-27 05:00:00 6.4 8 Norte 13 Norte 0 -- -- 86
2017-10-27 04:00:00 6.7 8 Norte 11 Norte 0 -- -- 86
2017-10-27 03:00:00 6.6 8 Norte 10 Norte 0 -- -- 84
2017-10-27 02:00:00 7.5 6 Norte 13 Norte 0 -- -- 82
2017-10-27 01:00:00 8 9 Norte 14 Norte 0 -- -- 82
2017-10-27 00:00:00 8.7 9 Norte 12 Noroeste 0 -- -- 79
2017-10-26 23:00:00 8.9 9 Norte 10 Norte 0 -- -- 75
2017-10-26 22:00:00 10.3 8 Norte 10 Norte 0 -- -- 72
2017-10-26 21:00:00 15.3 2 Este 4 Este 0 -- -- 53
2017-10-26 20:00:00 18.3 4 Sudeste 5 Sudeste 0 -- -- 46
2017-10-26 19:00:00 21 4 Sudeste 10 Sudeste 0 -- -- 40
2017-10-26 18:00:00 22.9 5 Sur 12 Sur 0 -- -- 35
2017-10-26 17:00:00 23 5 Sur 14 Sudoeste 0 -- -- 34
2017-10-26 16:00:00 22.2 8 Sudoeste 18 Sudoeste 0 -- -- 37
2017-10-26 15:00:00 21.5 7 Sur 20 Sur 0 -- -- 39
2017-10-26 14:00:00 20.3 8 Sur 18 Sudeste 0 -- -- 41
2017-10-26 13:00:00 18.2 9 Sudeste 15 Sudeste 0 -- -- 40
2017-10-26 12:00:00 16.3 6 Este 12 Este 0 -- -- 44
2017-10-26 11:00:00 12 2 Norte 7 Noroeste 0 -- -- 61
2017-10-26 10:00:00 6.6 5 Norte 9 Noroeste 0 -- -- 83
2017-10-26 09:00:00 3.9 5 Norte 9 Noroeste 0 -- -- 86
2017-10-26 08:00:00 3.8 4 Noroeste 8 Norte 0 -- -- 83
2017-10-26 07:00:00 4.1 5 Noroeste 7 Noroeste 0 -- -- 81
2017-10-26 06:00:00 5.2 0 Calma 6 Oeste 0 -- -- 78
2017-10-26 05:00:00 7.1 3 Nordeste 12 Este 0 -- -- 69
2017-10-26 04:00:00 6.9 4 Nordeste 12 Nordeste 0 -- -- 70
2017-10-26 03:00:00 7.3 5 Nordeste 11 Norte 0 -- -- 70
2017-10-26 02:00:00 6.4 8 Norte 10 Norte 0 -- -- 75
2017-10-26 01:00:00 6.9 9 Noroeste 12 Noroeste 0 -- -- 73
2017-10-26 00:00:00 7.9 7 Norte 9 Noroeste 0 -- -- 69
2017-10-25 23:00:00 10.6 5 Nordeste 8 Nordeste 0 -- -- 59
2017-10-25 22:00:00 13.8 6 Este 9 Este 0 -- -- 47
2017-10-25 21:00:00 14.9 7 Este 10 Este 0 -- -- 45
2017-10-25 20:00:00 16.5 9 Este 11 Este 0 -- -- 41
2017-10-25 19:00:00 21.3 9 Sudeste 13 Sudeste 0 -- -- 32
2017-10-25 18:00:00 23 8 Sudeste 14 Sudeste 0 -- -- 27
2017-10-25 17:00:00 24 5 Sudeste 18 Sur 0 -- -- 26
2017-10-25 16:00:00 23.6 8 Sur 20 Sur 0 -- -- 26
2017-10-25 15:00:00 22.9 8 Sur 14 Sur 0 -- -- 28
2017-10-25 14:00:00 22 5 Sudeste 11 Sudeste 0 -- -- 29
2017-10-25 13:00:00 19.8 4 Sudeste 8 Sudeste 0 -- -- 35
2017-10-25 12:00:00 17.6 0 Calma 9 Este 0 -- -- 40
2017-10-25 11:00:00 12.9 0 Calma 6 Noroeste 0 -- -- 61
2017-10-25 10:00:00 7.5 6 Noroeste 13 Norte 0 -- -- 79
2017-10-25 09:00:00 4.4 8 Noroeste 10 Noroeste 0 -- -- 85
2017-10-25 08:00:00 4.8 8 Noroeste 11 Noroeste 0 -- -- 84
2017-10-25 07:00:00 4.8 7 Noroeste 9 Noroeste 0 -- -- 83
2017-10-25 06:00:00 5.3 7 Noroeste 9 Noroeste 0 -- -- 81
2017-10-25 05:00:00 6.1 4 Norte 11 Noroeste 0 -- -- 79
2017-10-25 04:00:00 7 8 Norte 12 Norte 0 -- -- 76
2017-10-25 03:00:00 7.5 9 Norte 15 Norte 0 -- -- 75
2017-10-25 02:00:00 7.6 8 Norte 13 Norte 0 -- -- 72
2017-10-25 01:00:00 8.1 7 Norte 13 Norte 0 -- -- 71
2017-10-25 00:00:00 9.1 9 Norte 15 Norte 0 -- -- 68